Terminal Aerodrome Forecast
Issued by NWS Des Moines, IA

Home | Current Version | Previous Version | Text Only | Print | Product List | Glossary On
Versions: 1 2 3 4 5 6 7 8 9 10 11 12 13 14 15 16 17 18 19 20 21 22 23 24 25 26 27 28 29 30 31 32 33 34 35 36 37 38 39 40
000
FTUS43 KDMX 181138
TAFDSM
TAF
KDSM 181138Z 1812/1912 07004KT P6SM BKN060
     FM181330 08004KT 5SM -SN SCT022 BKN035
     FM181500 09005KT 3SM -SN SCT018 BKN028
     FM181900 10003KT P6SM BKN025=

USA.gov is the U.S. government's official web portal to all federal, state and local government web resources and services.